createdAt,value
2023-03-20T00:00:52.190Z,102207.47
2023-03-20T00:03:21.709Z,102209.72
2023-03-20T00:05:52.252Z,102204.44
2023-03-20T00:08:20.241Z,102199.97
2023-03-20T00:10:51.060Z,102204.34
2023-03-20T00:13:26.222Z,102191.28
2023-03-20T00:15:56.889Z,102195.88
2023-03-20T00:18:26.932Z,102196.59
2023-03-20T00:20:54.222Z,102195.09
2023-03-20T00:23:22.043Z,102195.63
2023-03-20T00:25:49.269Z,102186.09
2023-03-20T00:28:46.495Z,102191.31
2023-03-20T00:31:26.866Z,102184.44
2023-03-20T00:33:56.470Z,102184.28
2023-03-20T00:36:24.274Z,102185.25
2023-03-20T00:38:54.855Z,102185.38
2023-03-20T00:41:24.278Z,102187.50
2023-03-20T00:43:58.497Z,102181.31
2023-03-20T00:46:31.455Z,102178.56
2023-03-20T00:48:58.726Z,102168.63
2023-03-20T00:51:26.110Z,102168.50
2023-03-20T00:53:53.659Z,102172.84
2023-03-20T00:56:42.820Z,102168.50
2023-03-20T00:59:17.400Z,102166.13
2023-03-20T01:01:46.498Z,102166.44
2023-03-20T01:04:19.912Z,102158.44
2023-03-20T01:06:52.995Z,102158.25
2023-03-20T01:09:22.836Z,102146.63
2023-03-20T01:11:51.097Z,102145.72
2023-03-20T01:14:23.675Z,102133.59
2023-03-20T01:16:51.011Z,102133.50
2023-03-20T01:19:18.222Z,102133.53
2023-03-20T01:21:54.996Z,102134.75
2023-03-20T01:24:24.985Z,102134.13
2023-03-20T01:26:55.197Z,102131.38
2023-03-20T01:29:27.972Z,102128.09
2023-03-20T01:31:57.753Z,102143.81
2023-03-20T01:34:28.275Z,102136.91
2023-03-20T01:36:59.511Z,102144.69
2023-03-20T01:39:36.280Z,102131.66
2023-03-20T01:42:06.172Z,102132.41
2023-03-20T01:44:36.702Z,102120.94
2023-03-20T01:47:16.120Z,102126.94
2023-03-20T01:50:24.394Z,102125.25
2023-03-20T01:53:17.460Z,102121.63
2023-03-20T01:55:56.597Z,102111.09
2023-03-20T01:58:36.372Z,102113.03
2023-03-20T02:01:06.609Z,102101.72
2023-03-20T02:03:34.875Z,102102.44
2023-03-20T02:06:06.839Z,102100.81
2023-03-20T02:08:54.186Z,102102.44
2023-03-20T02:11:25.719Z,102103.13
2023-03-20T02:13:56.178Z,102091.75
2023-03-20T02:16:28.797Z,102097.72
2023-03-20T02:19:19.311Z,102088.16
2023-03-20T02:22:07.914Z,102086.72
2023-03-20T02:24:54.687Z,102078.19
2023-03-20T02:27:47.621Z,102081.63
2023-03-20T02:30:37.073Z,102077.44
2023-03-20T02:33:22.911Z,102074.50
2023-03-20T02:36:29.137Z,102066.63
2023-03-20T02:39:11.923Z,102067.47
2023-03-20T02:41:42.053Z,102065.81
2023-03-20T02:44:12.756Z,102056.91
2023-03-20T02:46:54.430Z,102058.94
2023-03-20T02:49:46.583Z,102057.06
2023-03-20T02:52:24.523Z,102047.28
2023-03-20T02:54:55.030Z,102050.75
2023-03-20T02:57:28.093Z,102037.88
2023-03-20T03:00:27.106Z,102045.47
2023-03-20T03:03:18.881Z,102029.72
2023-03-20T03:06:39.108Z,102024.63
2023-03-20T03:09:17.679Z,102016.69
2023-03-20T03:12:01.359Z,102025.28
2023-03-20T03:14:29.866Z,102022.72
2023-03-20T03:17:00.487Z,102019.34
2023-03-20T03:19:29.756Z,102021.00
2023-03-20T03:21:57.115Z,102017.53
2023-03-20T03:24:44.457Z,102008.69
2023-03-20T03:27:39.651Z,102016.53
2023-03-20T03:30:28.300Z,102006.09
2023-03-20T03:33:19.638Z,102007.81
2023-03-20T03:35:50.095Z,102005.16
2023-03-20T03:39:05.547Z,102011.19
2023-03-20T03:41:43.059Z,102016.31
2023-03-20T03:44:15.598Z,102004.66
2023-03-20T03:46:52.565Z,102007.44
2023-03-20T03:49:29.512Z,102001.25
2023-03-20T03:52:03.894Z,102003.78
2023-03-20T03:54:43.922Z,101999.25
2023-03-20T03:57:54.389Z,102007.91
2023-03-20T04:00:25.520Z,102005.34
2023-03-20T04:02:56.321Z,101998.44
2023-03-20T04:05:27.056Z,101995.69
2023-03-20T04:07:56.438Z,101991.38
2023-03-20T04:10:24.084Z,101990.47
2023-03-20T04:12:51.344Z,101991.53
2023-03-20T04:15:20.540Z,102000.16
2023-03-20T04:17:48.468Z,102004.66
2023-03-20T04:20:17.612Z,102008.16
2023-03-20T04:22:46.941Z,102005.47
2023-03-20T04:25:20.640Z,102007.00
2023-03-20T04:27:49.695Z,102010.09
2023-03-20T04:30:39.666Z,102006.63
2023-03-20T04:33:34.898Z,102005.72
2023-03-20T04:36:21.721Z,102012.50
2023-03-20T04:38:54.604Z,102002.22
2023-03-20T04:41:23.708Z,101995.19
2023-03-20T04:43:54.671Z,101997.69
2023-03-20T04:46:23.668Z,101988.38
2023-03-20T04:48:54.382Z,101993.50
2023-03-20T04:51:22.301Z,101989.13
2023-03-20T04:53:51.387Z,101991.91
2023-03-20T04:56:19.335Z,101985.50
2023-03-20T04:58:50.858Z,101982.81
2023-03-20T05:01:20.997Z,101981.09
2023-03-20T05:03:48.459Z,101985.34
2023-03-20T05:06:21.220Z,101986.94
2023-03-20T05:08:54.655Z,101986.06
2023-03-20T05:11:22.275Z,101987.78
2023-03-20T05:13:56.551Z,101985.84
2023-03-20T05:16:45.023Z,101992.91
2023-03-20T05:19:31.290Z,101990.06
2023-03-20T05:22:19.432Z,101991.69
2023-03-20T05:25:22.409Z,101986.47
2023-03-20T05:28:22.912Z,101981.94
2023-03-20T05:31:10.357Z,101980.22
2023-03-20T05:33:56.313Z,101984.47
2023-03-20T05:36:49.517Z,101983.59
2023-03-20T05:39:28.486Z,101984.56
2023-03-20T05:42:34.129Z,101992.19
2023-03-20T05:45:36.676Z,101986.53
2023-03-20T05:48:30.121Z,101986.13
2023-03-20T05:51:23.158Z,101986.97
2023-03-20T05:54:10.611Z,101976.19
2023-03-20T05:56:59.032Z,101979.31
2023-03-20T05:59:46.765Z,101979.53
2023-03-20T06:02:32.501Z,101982.09
2023-03-20T06:05:12.266Z,101980.41
2023-03-20T06:07:50.562Z,101985.59
2023-03-20T06:10:20.901Z,101996.13
2023-03-20T06:12:50.368Z,101993.41
2023-03-20T06:15:19.821Z,102004.09
2023-03-20T06:17:55.888Z,102011.16
2023-03-20T06:20:24.740Z,102012.97
2023-03-20T06:22:53.098Z,102008.59
2023-03-20T06:25:24.145Z,102015.56
2023-03-20T06:27:54.738Z,102016.19
2023-03-20T06:30:25.460Z,102019.56
2023-03-20T06:32:56.936Z,102014.34
2023-03-20T06:35:35.002Z,102023.88
2023-03-20T06:38:02.995Z,102021.19
2023-03-20T06:40:32.181Z,102021.22
2023-03-20T06:43:00.442Z,102025.56
2023-03-20T06:45:41.534Z,102018.28
2023-03-20T06:48:24.184Z,102027.00
2023-03-20T06:50:53.187Z,102033.94
2023-03-20T06:53:23.018Z,102037.16
2023-03-20T06:56:05.312Z,102040.94
2023-03-20T06:58:35.124Z,102040.59
2023-03-20T07:01:03.402Z,102038.38
2023-03-20T07:03:30.768Z,102042.59
2023-03-20T07:05:59.149Z,102047.09
2023-03-20T07:08:29.461Z,102047.88
2023-03-20T07:11:00.755Z,102049.41
2023-03-20T07:13:29.664Z,102052.75
2023-03-20T07:16:04.829Z,102056.50
2023-03-20T07:18:38.291Z,102064.31
2023-03-20T07:21:08.367Z,102052.88
2023-03-20T07:23:36.682Z,102060.63
2023-03-20T07:26:05.632Z,102052.31
2023-03-20T07:28:34.175Z,102057.69
2023-03-20T07:31:30.076Z,102055.22
2023-03-20T07:34:08.289Z,102059.88
2023-03-20T07:36:35.938Z,102061.78
2023-03-20T07:39:11.530Z,102065.38
2023-03-20T07:41:41.585Z,102068.31
2023-03-20T07:44:11.140Z,102066.63
2023-03-20T07:46:54.392Z,102067.50
2023-03-20T07:49:23.784Z,102062.16
2023-03-20T07:51:51.536Z,102064.25
2023-03-20T07:54:19.398Z,102052.78
2023-03-20T07:56:53.605Z,102056.13
2023-03-20T07:59:20.966Z,102044.94
2023-03-20T08:01:51.006Z,102049.53
2023-03-20T08:04:22.216Z,102044.72
2023-03-20T08:06:50.927Z,102048.47
2023-03-20T08:09:19.212Z,102043.44
2023-03-20T08:11:46.318Z,102047.22
2023-03-20T08:14:13.692Z,102034.94
2023-03-20T08:16:41.043Z,102036.63
2023-03-20T08:19:08.666Z,102041.53
2023-03-20T08:21:36.187Z,102046.31
2023-03-20T08:24:04.385Z,102041.00
2023-03-20T08:26:34.692Z,102050.03
2023-03-20T08:29:01.824Z,102047.78
2023-03-20T08:31:29.064Z,102045.47
2023-03-20T08:33:57.182Z,102042.78
2023-03-20T08:36:24.804Z,102041.03
2023-03-20T08:38:52.137Z,102037.47
2023-03-20T08:41:22.712Z,102043.28
2023-03-20T08:43:52.233Z,102034.28
2023-03-20T08:46:19.542Z,102041.78
2023-03-20T08:48:46.634Z,102044.91
2023-03-20T08:51:16.996Z,102031.50
2023-03-20T08:53:44.305Z,102042.94
2023-03-20T08:56:12.274Z,102033.69
2023-03-20T08:58:39.417Z,102031.50
2023-03-20T09:01:08.703Z,102030.84
2023-03-20T09:03:36.947Z,102036.31
2023-03-20T09:06:11.310Z,102030.41
2023-03-20T09:08:38.956Z,102027.94
2023-03-20T09:11:07.350Z,102028.88
2023-03-20T09:13:37.841Z,102027.19
2023-03-20T09:16:07.932Z,102024.69
2023-03-20T09:18:35.055Z,102024.75
2023-03-20T09:21:04.526Z,102027.16
2023-03-20T09:23:32.409Z,102022.94
2023-03-20T09:25:59.685Z,102024.03
2023-03-20T09:28:27.491Z,102032.03
2023-03-20T09:30:59.277Z,102027.66
2023-03-20T09:33:27.160Z,102036.28
2023-03-20T09:35:54.724Z,102033.69
2023-03-20T09:38:27.919Z,102025.84
2023-03-20T09:41:27.562Z,102021.41
2023-03-20T09:44:03.935Z,102030.28
2023-03-20T09:47:19.476Z,102031.06
2023-03-20T09:50:26.123Z,102024.94
2023-03-20T09:53:27.908Z,102030.91
2023-03-20T09:55:56.730Z,102030.63
2023-03-20T09:58:32.525Z,102024.75
2023-03-20T10:01:04.910Z,102025.53
2023-03-20T10:03:49.824Z,102024.06
2023-03-20T10:06:18.164Z,102019.69
2023-03-20T10:08:46.474Z,102019.75
2023-03-20T10:11:24.747Z,102017.16
2023-03-20T10:13:57.993Z,102020.69
2023-03-20T10:17:09.486Z,102027.66
2023-03-20T10:19:59.242Z,102017.19
2023-03-20T10:22:46.255Z,102013.66
2023-03-20T10:25:30.751Z,102022.47
2023-03-20T10:28:20.418Z,102011.88
2023-03-20T10:31:26.099Z,102016.28
2023-03-20T10:34:15.013Z,102015.38
2023-03-20T10:36:54.361Z,102015.41
2023-03-20T10:39:34.298Z,102008.38
2023-03-20T10:42:05.167Z,102011.88
2023-03-20T10:44:39.470Z,102006.59
2023-03-20T10:47:13.297Z,102011.91
2023-03-20T10:49:47.847Z,102013.56
2023-03-20T10:52:31.349Z,102005.63
2023-03-20T10:55:08.784Z,102015.41
2023-03-20T10:57:42.483Z,102018.03
2023-03-20T11:00:28.233Z,102004.75
2023-03-20T11:02:57.829Z,102008.34
2023-03-20T11:05:38.465Z,102010.84
2023-03-20T11:08:14.186Z,101999.44
2023-03-20T11:10:51.403Z,102009.25
2023-03-20T11:13:46.439Z,101996.78
2023-03-20T11:16:35.557Z,102003.88
2023-03-20T11:19:09.128Z,101998.50
2023-03-20T11:21:51.101Z,101994.97
2023-03-20T11:25:00.465Z,101995.09
2023-03-20T11:27:38.440Z,101999.34
2023-03-20T11:30:27.688Z,101998.50
2023-03-20T11:33:03.863Z,101999.94
2023-03-20T11:35:34.803Z,101998.50
2023-03-20T11:38:18.677Z,101997.56
2023-03-20T11:40:52.585Z,101991.41
2023-03-20T11:43:22.944Z,101994.84
2023-03-20T11:46:02.891Z,101993.06
2023-03-20T11:48:42.350Z,101994.00
2023-03-20T11:51:15.106Z,101988.75
2023-03-20T11:53:48.450Z,101986.09
2023-03-20T11:56:24.663Z,101984.19
2023-03-20T11:59:35.228Z,101982.97
2023-03-20T12:02:44.255Z,101975.66
2023-03-20T12:05:40.112Z,101965.00
2023-03-20T12:08:18.913Z,101970.03
2023-03-20T12:11:01.806Z,101958.59
2023-03-20T12:13:40.618Z,101965.66
2023-03-20T12:16:31.152Z,101962.78
2023-03-20T12:19:19.680Z,101962.09
2023-03-20T12:22:45.441Z,101953.41
2023-03-20T12:25:31.291Z,101960.38
2023-03-20T12:28:11.184Z,101970.72
2023-03-20T12:30:56.756Z,101964.59
2023-03-20T12:33:57.722Z,101960.09
2023-03-20T12:36:44.275Z,101966.94
2023-03-20T12:39:51.125Z,101955.94
2023-03-20T12:42:41.201Z,101952.44
2023-03-20T12:45:21.105Z,101953.66
2023-03-20T12:48:26.233Z,101929.84
2023-03-20T12:51:20.760Z,101931.31
2023-03-20T12:54:22.637Z,101932.00
2023-03-20T12:57:22.935Z,101925.88
2023-03-20T13:00:08.664Z,101915.13
2023-03-20T13:03:12.163Z,101922.25
2023-03-20T13:06:22.977Z,101911.66
2023-03-20T13:12:27.956Z,101912.34
2023-03-20T13:15:23.154Z,101897.03
2023-03-20T13:18:44.632Z,101902.03
2023-03-20T13:21:27.477Z,101902.69
2023-03-20T13:24:30.157Z,101910.84
2023-03-20T13:27:33.546Z,101897.97
2023-03-20T13:30:14.076Z,101890.84
2023-03-20T13:33:19.600Z,101898.72
2023-03-20T13:36:24.569Z,101899.81
2023-03-20T13:39:20.966Z,101894.50
2023-03-20T13:42:01.728Z,101899.06
2023-03-20T13:44:35.172Z,101882.25
2023-03-20T13:47:11.884Z,101887.63
2023-03-20T13:49:59.072Z,101892.13
2023-03-20T13:52:45.389Z,101891.22
2023-03-20T13:55:27.926Z,101890.28
2023-03-20T13:58:39.689Z,101890.06
2023-03-20T14:01:38.620Z,101892.97
2023-03-20T14:04:32.400Z,101886.84
2023-03-20T14:07:38.212Z,101868.94
2023-03-20T14:10:45.417Z,101876.13
2023-03-20T14:13:20.824Z,101880.69
2023-03-20T14:16:05.639Z,101882.44
2023-03-20T14:19:04.278Z,101885.06
2023-03-20T14:21:37.027Z,101889.44
2023-03-20T14:24:33.415Z,101894.72
2023-03-20T14:27:36.711Z,101883.16
2023-03-20T14:31:10.627Z,101884.19
2023-03-20T14:34:13.403Z,101879.72
2023-03-20T14:37:31.640Z,101886.59
2023-03-20T14:40:21.122Z,101882.81
2023-03-20T14:42:55.655Z,101882.97
2023-03-20T14:45:51.708Z,101879.47
2023-03-20T14:48:46.551Z,101887.47
2023-03-20T14:51:48.457Z,101875.13
2023-03-20T14:54:27.771Z,101871.63
2023-03-20T14:57:27.425Z,101867.91
2023-03-20T15:00:00.463Z,101865.47
2023-03-20T15:02:37.109Z,101870.63
2023-03-20T15:05:46.801Z,101867.88
2023-03-20T15:08:30.595Z,101868.63
2023-03-20T15:10:59.549Z,101866.09
2023-03-20T15:13:34.462Z,101878.22
2023-03-20T15:16:09.525Z,101873.97
2023-03-20T15:18:53.734Z,101871.28
2023-03-20T15:21:48.747Z,101877.13
2023-03-20T15:24:33.229Z,101869.16
2023-03-20T15:27:14.075Z,101869.84
2023-03-20T15:29:53.004Z,101866.16
2023-03-20T15:32:36.972Z,101866.91
2023-03-20T15:35:21.501Z,101874.50
2023-03-20T15:37:56.429Z,101866.72
2023-03-20T15:40:47.725Z,101874.00
2023-03-20T15:43:38.454Z,101871.56
2023-03-20T15:46:25.766Z,101873.22
2023-03-20T15:49:00.512Z,101865.25
2023-03-20T15:51:39.342Z,101872.03
2023-03-20T15:54:08.261Z,101872.56
2023-03-20T15:56:36.386Z,101867.59
2023-03-20T15:59:05.689Z,101857.13
2023-03-20T16:01:37.174Z,101861.94
2023-03-20T16:04:04.764Z,101864.81
2023-03-20T16:06:49.289Z,101857.66
2023-03-20T16:09:17.867Z,101855.47
2023-03-20T16:11:51.446Z,101857.22
2023-03-20T16:14:34.748Z,101855.78
2023-03-20T16:17:06.331Z,101853.88
2023-03-20T16:19:34.233Z,101858.09
2023-03-20T16:22:32.736Z,101864.06
2023-03-20T16:25:02.323Z,101863.34
2023-03-20T16:27:35.146Z,101865.91
2023-03-20T16:30:25.377Z,101854.59
2023-03-20T16:33:09.155Z,101853.66
2023-03-20T16:35:57.814Z,101866.72
2023-03-20T16:38:41.021Z,101859.84
2023-03-20T16:41:38.224Z,101865.84
2023-03-20T16:44:36.609Z,101865.13
2023-03-20T16:47:13.869Z,101870.06
2023-03-20T16:49:47.239Z,101870.94
2023-03-20T16:52:19.745Z,101864.59
2023-03-20T16:54:55.618Z,101862.84
2023-03-20T16:57:25.591Z,101866.41
2023-03-20T17:00:21.368Z,101862.69
2023-03-20T17:03:14.647Z,101870.03
2023-03-20T17:06:17.333Z,101881.44
2023-03-20T17:08:57.054Z,101871.81
2023-03-20T17:11:39.980Z,101879.84
2023-03-20T17:14:09.869Z,101875.84
2023-03-20T17:16:44.623Z,101876.72
2023-03-20T17:19:22.463Z,101885.69
2023-03-20T17:21:57.479Z,101877.03
2023-03-20T17:24:28.158Z,101883.75
2023-03-20T17:27:05.655Z,101872.66
2023-03-20T17:29:37.353Z,101886.69
2023-03-20T17:32:29.199Z,101878.94
2023-03-20T17:35:00.472Z,101885.16
2023-03-20T17:37:38.662Z,101883.50
2023-03-20T17:40:23.002Z,101887.47
2023-03-20T17:42:54.378Z,101895.53
2023-03-20T17:45:33.806Z,101894.94
2023-03-20T17:48:33.876Z,101894.75
2023-03-20T17:51:11.363Z,101888.78
2023-03-20T17:53:38.654Z,101900.03
2023-03-20T17:56:16.157Z,101886.69
2023-03-20T17:58:49.253Z,101895.44
2023-03-20T18:01:19.355Z,101903.34
2023-03-20T18:03:47.762Z,101908.59
2023-03-20T18:06:33.967Z,101907.50
2023-03-20T18:09:02.111Z,101907.47
2023-03-20T18:11:44.386Z,101918.38
2023-03-20T18:14:12.534Z,101910.88
2023-03-20T18:16:51.493Z,101916.13
2023-03-20T18:19:30.879Z,101922.97
2023-03-20T18:21:58.949Z,101922.84
2023-03-20T18:24:27.483Z,101919.31
2023-03-20T18:26:55.613Z,101917.31
2023-03-20T18:29:25.989Z,101919.81
2023-03-20T18:31:53.856Z,101924.00
2023-03-20T18:34:23.872Z,101926.13
2023-03-20T18:36:52.008Z,101925.19
2023-03-20T18:39:33.941Z,101926.59
2023-03-20T18:42:01.275Z,101937.69
2023-03-20T18:44:31.447Z,101929.03
2023-03-20T18:46:58.753Z,101929.94
2023-03-20T18:49:25.885Z,101931.78
2023-03-20T18:52:04.435Z,101930.13
2023-03-20T18:54:38.960Z,101938.84
2023-03-20T18:57:06.494Z,101933.31
2023-03-20T18:59:37.196Z,101929.41
2023-03-20T19:02:04.383Z,101934.88
2023-03-20T19:04:33.234Z,101938.34
2023-03-20T19:07:02.813Z,101935.00
2023-03-20T19:09:33.244Z,101934.78
2023-03-20T19:12:00.467Z,101933.81
2023-03-20T19:14:30.071Z,101941.38
2023-03-20T19:16:57.392Z,101945.97
2023-03-20T19:19:24.859Z,101945.28
2023-03-20T19:21:52.282Z,101943.78
2023-03-20T19:24:21.888Z,101957.59
2023-03-20T19:26:49.396Z,101952.19
2023-03-20T19:29:18.241Z,101954.56
2023-03-20T19:31:48.251Z,101959.34
2023-03-20T19:34:44.452Z,101958.50
2023-03-20T19:37:07.222Z,101956.50
2023-03-20T19:39:34.491Z,101960.69
2023-03-20T19:42:19.931Z,101959.84
2023-03-20T19:44:49.000Z,101958.41
2023-03-20T19:47:19.348Z,101969.69
2023-03-20T19:49:48.005Z,101972.41
2023-03-20T19:52:32.400Z,101968.44
2023-03-20T19:55:05.681Z,101975.75
2023-03-20T19:57:33.178Z,101970.28
2023-03-20T20:01:11.070Z,101968.25
2023-03-20T20:03:08.509Z,101969.19
2023-03-20T20:05:37.891Z,101969.19
2023-03-20T20:08:24.381Z,101966.38
2023-03-20T20:10:56.718Z,101965.84
2023-03-20T20:14:03.602Z,101963.72
2023-03-20T20:16:35.171Z,101965.84
2023-03-20T20:19:11.842Z,101963.06
2023-03-20T20:24:47.631Z,101962.88
2023-03-20T20:27:18.546Z,101971.31
2023-03-20T20:30:06.449Z,101970.22
2023-03-20T20:32:42.172Z,101960.25
2023-03-20T20:35:55.825Z,101970.66
2023-03-20T20:41:20.823Z,101969.75
2023-03-20T20:44:16.094Z,101967.81
2023-03-20T20:46:46.861Z,101975.88
2023-03-20T20:49:19.931Z,101975.63
2023-03-20T20:51:51.148Z,101980.19
2023-03-20T20:54:21.661Z,101979.00
2023-03-20T20:56:53.456Z,101978.16
2023-03-20T20:59:26.816Z,101986.31
2023-03-20T21:01:54.906Z,101983.38
2023-03-20T21:04:24.004Z,101986.72
2023-03-20T21:07:11.407Z,101982.94
2023-03-20T21:09:46.023Z,101983.50
2023-03-20T21:12:33.545Z,101989.66
2023-03-20T21:15:07.283Z,101987.59
2023-03-20T21:17:59.465Z,101994.13
2023-03-20T21:20:27.601Z,101997.44
2023-03-20T21:23:24.916Z,101994.41
2023-03-20T21:26:07.255Z,102007.25
2023-03-20T21:28:38.124Z,101999.81
2023-03-20T21:31:25.198Z,101999.38
2023-03-20T21:33:56.885Z,101999.88
2023-03-20T21:36:27.862Z,102003.66
2023-03-20T21:39:08.741Z,102006.16
2023-03-20T21:41:51.825Z,102001.16
2023-03-20T21:44:48.346Z,101992.72
2023-03-20T21:48:09.305Z,101991.97
2023-03-20T21:50:46.581Z,101994.22
2023-03-20T21:54:17.677Z,102001.56
2023-03-20T21:56:51.423Z,101997.97
2023-03-20T21:59:53.848Z,102005.84
2023-03-20T22:02:14.029Z,102007.69
2023-03-20T22:08:46.865Z,101988.97
2023-03-20T22:11:31.420Z,101990.06
2023-03-20T22:20:33.283Z,102006.81
2023-03-20T22:32:47.460Z,101997.72
2023-03-20T22:35:54.392Z,102000.88
2023-03-20T22:44:50.074Z,102001.59
2023-03-20T22:47:09.574Z,101992.13
2023-03-20T22:49:57.328Z,101993.19
2023-03-20T22:52:38.323Z,101986.22
2023-03-20T22:55:15.794Z,101989.47
2023-03-20T22:58:03.995Z,101986.16
2023-03-20T23:00:45.135Z,101978.38
2023-03-20T23:03:33.390Z,101984.31
2023-03-20T23:06:24.605Z,101977.47
2023-03-20T23:08:58.313Z,101978.16
2023-03-20T23:11:33.498Z,101985.22
2023-03-20T23:14:18.155Z,101978.16
2023-03-20T23:16:53.540Z,101985.84
2023-03-20T23:19:37.776Z,101985.03
2023-03-20T23:22:16.207Z,101982.28
2023-03-20T23:24:57.295Z,101983.97
2023-03-20T23:27:33.370Z,101983.72
2023-03-20T23:30:05.990Z,101985.88
2023-03-20T23:32:55.777Z,101971.94
2023-03-20T23:36:21.483Z,101982.66
2023-03-20T23:39:11.717Z,101981.66
2023-03-20T23:44:27.320Z,101972.25
2023-03-20T23:47:03.338Z,101976.56
2023-03-20T23:49:37.535Z,101972.78
2023-03-20T23:52:07.357Z,101967.66
2023-03-20T23:54:40.272Z,101963.69
2023-03-20T23:57:07.750Z,101961.13
2023-03-20T23:59:41.050Z,101962.88
